Aérodrome :
LOGIN :

S'inscrire | Disclaimer

   EN    FR    IT 

 










Légende :    VFR   VFR Marginal   IFR   IFR Intensif   IFR Très Intensif
Visi : 
Plafond : 
>= 8 km
>= 3000ft
5 à 8 km
1000 à 3000 ft
1500m à 5 km
500 à 1000 ft
800 à 1500m
200 à 500 ft
< 800m
< 200 ft
Symboles :   Orages  Brouillard  Fortes neiges  Fortes précipitations  Vent > 20 kt
SIGMETs :   Divers  Orages  Givrage  Turbulence  Onde Orograph.  Cendres Volcan.






- Altitude de l'aérodrome : 270 ft
- Code IATA : OXF


EGTK - Oxford (Kidlington)

DERNIER METAR :
  • 281220Z 04019KT 9999 SCT026 BKN029 09/03 Q1030

METARs EXPIRÉS :
  • 281150Z 05019KT 9999 SCT022 BKN027 08/03 Q1030
  • 281120Z 04020G31KT 9999 SCT022 BKN026 08/03 Q1030
  • 281050Z 04019KT 9999 SCT022 BKN026 08/03 Q1030
  • 281020Z 04021KT 9999 SCT020 BKN024 08/04 Q1030
  • 280950Z 04016G27KT 9999 BKN019 07/04 Q1029

TAF TAF EGTK
Valide du 28 à 12h jusqu'au 28 à 21h UTC


281054Z 2812/2821 04018G30KT 9999 BKN025
BECMG 2818/2821 03014KT



MET'MAP, la Météo Aéronautique d'un coup d'oeil ! - Copyright ORBIFLY Décembre 2007 - Disclaimer

ORBIFLY MET'MAP TEAM :

Programmation & Développement : Alexandra Zaïnal
Sur une idée originale de : Baudouin d'Aumeries
Assistance à la programmation : Marc-Olivier Méhu
Soutien technique & logistique : Manuel Goepfert

Contact : metmap@orbifly.com




SOURCES & CREDITS :

   NOAA